createdAt,value
2023-01-02T04:42:39.387Z,101500.44
2023-01-02T04:45:42.742Z,101500.44
2023-01-02T04:48:45.372Z,101501.16
2023-01-02T04:51:48.247Z,101500.22
2023-01-02T04:54:50.903Z,101497.53
2023-01-02T04:57:53.732Z,101505.38
2023-01-02T05:00:56.508Z,101496.66
2023-01-02T05:03:59.392Z,101501.84
2023-01-02T05:07:03.074Z,101500.94
2023-01-02T05:10:06.911Z,101502.72
2023-01-02T05:13:09.995Z,101505.31
2023-01-02T05:16:13.186Z,101500.97
2023-01-02T05:19:16.195Z,101495.75
2023-01-02T05:22:37.625Z,101500.97
2023-01-02T05:25:40.076Z,101491.44
2023-01-02T05:28:43.051Z,101495.81
2023-01-02T05:31:45.749Z,101494.00
2023-01-02T05:34:48.773Z,101500.91
2023-01-02T05:37:51.399Z,101492.28
2023-01-02T05:41:04.196Z,101497.59
2023-01-02T05:44:10.607Z,101485.25
2023-01-02T05:47:16.497Z,101499.97
2023-01-02T05:50:20.022Z,101495.59
2023-01-02T05:53:22.937Z,101499.91
2023-01-02T05:56:27.382Z,101497.31
2023-01-02T05:59:32.449Z,101501.63
2023-01-02T06:02:38.787Z,101502.44
2023-01-02T06:05:41.590Z,101498.84
2023-01-02T06:08:44.647Z,101492.88
2023-01-02T06:11:47.621Z,101493.78
2023-01-02T06:14:50.273Z,101493.69
2023-01-02T06:17:53.184Z,101490.25
2023-01-02T06:21:04.587Z,101484.97
2023-01-02T06:24:07.764Z,101482.34
2023-01-02T06:27:10.390Z,101494.63
2023-01-02T06:30:13.600Z,101485.81
2023-01-02T06:33:16.276Z,101490.25
2023-01-02T06:36:24.819Z,101490.22
2023-01-02T06:39:27.559Z,101498.03
2023-01-02T06:42:30.445Z,101486.66
2023-01-02T06:45:33.255Z,101482.34
2023-01-02T06:48:36.249Z,101492.84
2023-01-02T06:51:38.827Z,101488.38
2023-01-02T06:54:41.705Z,101497.03
2023-01-02T06:57:44.549Z,101498.72
2023-01-02T07:00:49.633Z,101495.16
2023-01-02T07:03:52.240Z,101496.09
2023-01-02T07:06:55.313Z,101501.28
2023-01-02T07:09:58.042Z,101501.25
2023-01-02T07:13:01.497Z,101501.28
2023-01-02T07:16:06.113Z,101510.91
2023-01-02T07:19:09.117Z,101510.06
2023-01-02T07:22:11.835Z,101520.41
2023-01-02T07:25:14.761Z,101524.56
2023-01-02T07:28:17.466Z,101526.62
2023-01-02T07:31:20.621Z,101525.59
2023-01-02T07:34:23.390Z,101526.28
2023-01-02T07:37:26.238Z,101518.31
2023-01-02T07:40:32.274Z,101516.34
2023-01-02T07:43:35.590Z,101520.63
2023-01-02T07:46:38.298Z,101531.84
2023-01-02T07:49:41.389Z,101527.47
2023-01-02T07:52:44.124Z,101527.50
2023-01-02T07:55:57.302Z,101531.09
2023-01-02T07:59:00.895Z,101535.37
2023-01-02T08:02:04.000Z,101535.28
2023-01-02T08:05:07.002Z,101529.00
2023-01-02T08:08:09.970Z,101519.38
2023-01-02T08:11:19.363Z,101518.34
2023-01-02T08:14:23.802Z,101526.94
2023-01-02T08:17:26.911Z,101519.13
2023-01-02T08:20:29.540Z,101519.13
2023-01-02T08:23:33.295Z,101511.97
2023-01-02T08:26:35.859Z,101518.31
2023-01-02T08:29:38.850Z,101524.41
2023-01-02T08:32:43.218Z,101516.28
2023-01-02T08:35:48.497Z,101518.91
2023-01-02T08:38:51.230Z,101518.84
2023-01-02T08:41:54.131Z,101521.37
2023-01-02T08:44:56.833Z,101521.19
2023-01-02T08:48:00.032Z,101527.22
2023-01-02T08:51:05.444Z,101519.28
2023-01-02T08:54:08.465Z,101528.72
2023-01-02T08:57:11.440Z,101530.34
2023-01-02T09:00:14.956Z,101531.97
2023-01-02T09:03:22.615Z,101526.47
2023-01-02T09:06:28.291Z,101526.25
2023-01-02T09:09:31.063Z,101529.41
2023-01-02T09:12:34.215Z,101527.50
2023-01-02T09:15:36.962Z,101519.00
2023-01-02T09:18:40.600Z,101520.63
2023-01-02T09:21:43.254Z,101526.75
2023-01-02T09:24:46.773Z,101532.75
2023-01-02T09:27:49.380Z,101523.94
2023-01-02T09:30:53.710Z,101514.78
2023-01-02T09:33:56.620Z,101518.81
2023-01-02T09:36:59.434Z,101509.22
2023-01-02T09:40:02.127Z,101506.53
2023-01-02T09:43:05.289Z,101502.97
2023-01-02T09:46:18.676Z,101494.13
2023-01-02T09:49:27.847Z,101485.75
2023-01-02T09:52:58.432Z,101488.63
2023-01-02T09:56:22.261Z,101487.31
2023-01-02T09:59:32.304Z,101486.12
2023-01-02T10:02:54.110Z,101474.59
2023-01-02T10:05:57.054Z,101475.59
2023-01-02T10:09:18.897Z,101470.03
2023-01-02T10:12:33.282Z,101469.25
2023-01-02T10:15:37.314Z,101462.38
2023-01-02T10:18:43.904Z,101464.06
2023-01-02T10:21:49.223Z,101464.94
2023-01-02T10:25:26.330Z,101459.72
2023-01-02T10:28:52.605Z,101453.69
2023-01-02T10:32:01.195Z,101448.03
2023-01-02T10:35:06.750Z,101444.50
2023-01-02T10:38:16.757Z,101438.22
2023-01-02T10:41:19.757Z,101430.84
2023-01-02T10:44:27.502Z,101434.09
2023-01-02T10:47:39.905Z,101433.84
2023-01-02T10:50:54.572Z,101423.19
2023-01-02T10:54:10.548Z,101418.41
2023-01-02T10:57:25.247Z,101415.28
2023-01-02T11:00:31.276Z,101408.94
2023-01-02T11:03:34.793Z,101405.53
2023-01-02T11:06:51.050Z,101400.81
2023-01-02T11:09:57.563Z,101406.28
2023-01-02T11:13:04.953Z,101399.19
2023-01-02T11:16:08.144Z,101401.97
2023-01-02T11:19:20.501Z,101390.41
2023-01-02T11:22:37.371Z,101388.22
2023-01-02T11:25:41.998Z,101386.78
2023-01-02T11:28:45.400Z,101382.37
2023-01-02T11:31:57.509Z,101378.44
2023-01-02T11:35:04.652Z,101363.59
2023-01-02T11:38:30.191Z,101368.03
2023-01-02T11:42:07.702Z,101367.97
2023-01-02T11:45:17.023Z,101361.72
2023-01-02T11:48:23.693Z,101352.28
2023-01-02T11:51:29.888Z,101341.56
2023-01-02T11:54:45.416Z,101336.25
2023-01-02T11:58:00.996Z,101334.81
2023-01-02T12:01:17.559Z,101328.84
2023-01-02T12:04:21.978Z,101327.19
2023-01-02T12:07:43.383Z,101322.72
2023-01-02T12:11:02.793Z,101336.31
2023-01-02T12:14:11.009Z,101324.09
2023-01-02T12:17:56.900Z,101322.31
2023-01-02T12:21:14.845Z,101325.66
2023-01-02T12:24:38.874Z,101325.53
2023-01-02T12:27:53.152Z,101321.25
2023-01-02T12:31:17.967Z,101309.88
2023-01-02T12:34:50.180Z,101315.44
2023-01-02T12:38:03.726Z,101312.78
2023-01-02T12:41:06.421Z,101312.50
2023-01-02T12:44:38.465Z,101314.13
2023-01-02T12:47:47.192Z,101310.16
2023-01-02T12:51:03.850Z,101303.22
2023-01-02T12:54:37.231Z,101304.16
2023-01-02T12:57:54.287Z,101292.88
2023-01-02T13:01:06.308Z,101300.50
2023-01-02T13:04:28.535Z,101286.06
2023-01-02T13:07:47.888Z,101286.06
2023-01-02T13:10:53.543Z,101284.47
2023-01-02T13:13:56.496Z,101289.34
2023-01-02T13:17:06.863Z,101289.31
2023-01-02T13:20:34.064Z,101293.88
2023-01-02T13:23:51.793Z,101291.22
2023-01-02T13:26:57.619Z,101282.62
2023-01-02T13:30:02.000Z,101283.44
2023-01-02T13:33:21.302Z,101289.91
2023-01-02T13:36:28.876Z,101289.00
2023-01-02T13:39:48.612Z,101289.34
2023-01-02T13:42:59.822Z,101298.16
2023-01-02T13:46:02.852Z,101295.16
2023-01-02T13:49:14.507Z,101298.37
2023-01-02T13:52:21.082Z,101285.16
2023-01-02T13:55:31.751Z,101287.87
2023-01-02T13:58:45.548Z,101289.47
2023-01-02T14:02:00.864Z,101292.22
2023-01-02T14:05:41.726Z,101290.09
2023-01-02T14:09:10.276Z,101295.59
2023-01-02T14:12:13.507Z,101296.75
2023-01-02T14:15:20.231Z,101305.44
2023-01-02T14:18:30.948Z,101307.56
2023-01-02T14:21:37.888Z,101297.16
2023-01-02T14:24:51.516Z,101302.50
2023-01-02T14:27:59.146Z,101293.38
2023-01-02T14:31:16.565Z,101299.13
2023-01-02T14:34:24.766Z,101302.00
2023-01-02T14:37:44.882Z,101299.69
2023-01-02T14:40:48.032Z,101304.94
2023-01-02T14:43:51.332Z,101306.78
2023-01-02T14:46:56.145Z,101300.03
2023-01-02T14:50:02.279Z,101301.09
2023-01-02T14:53:10.222Z,101310.81
2023-01-02T14:56:19.334Z,101294.56
2023-01-02T14:59:29.961Z,101297.78
2023-01-02T15:02:40.280Z,101297.25
2023-01-02T15:05:49.653Z,101287.53
2023-01-02T15:08:56.941Z,101286.25
2023-01-02T15:12:20.250Z,101302.53
2023-01-02T15:15:28.265Z,101291.53
2023-01-02T15:18:37.409Z,101293.38
2023-01-02T15:21:40.287Z,101282.00
2023-01-02T15:24:49.945Z,101282.75
2023-01-02T15:27:53.492Z,101288.97
2023-01-02T15:31:18.929Z,101289.09
2023-01-02T15:34:30.895Z,101292.56
2023-01-02T15:37:33.579Z,101296.62
2023-01-02T15:40:38.022Z,101299.25
2023-01-02T15:43:59.224Z,101297.44
2023-01-02T15:47:04.226Z,101297.53
2023-01-02T15:50:14.293Z,101296.59
2023-01-02T15:53:24.584Z,101307.19
2023-01-02T15:56:35.360Z,101299.31
2023-01-02T15:59:38.928Z,101304.47
2023-01-02T16:02:44.121Z,101307.94
2023-01-02T16:06:03.052Z,101308.34
2023-01-02T16:09:15.437Z,101310.06
2023-01-02T16:12:23.491Z,101317.06
